Time;durP1;ratioP1;P1;durP2;ratioP2;P2;SDS_P1;SDS_P2;PMS_P1;PMS_P2;Temp;Humidity;BMP_temperature;BMP_pressure;BME280_temperature;BME280_humidity;BME280_pressure;Samples;Min_cycle;Max_cycle;Signal;HPM_P1;HPM_P2
2021/09/23 00:00:25;;;;;;;;;;;;;;;11.30;85.39;102215.22;5051106;28;19928;-48
2021/09/23 00:05:25;;;;;;;;;;;;;;;11.18;85.51;102207.88;5051307;28;19970;-41
2021/09/23 00:07:53;;;;;;;;;;;;;;;11.14;85.56;102209.81;5049033;28;19932;-41
2021/09/23 00:10:21;;;;;;;;;;;;;;;11.18;86.19;102218.41;5065771;28;20400;-42
2021/09/23 00:12:48;;;;;;;;;;;;;;;11.27;85.88;102216.19;5049221;28;19929;-44
2021/09/23 00:15:15;;;;;;;;;;;;;;;11.31;85.38;102215.13;5065906;28;19931;-49
2021/09/23 00:17:49;;;;;;;;;;;;;;;11.28;84.96;102211.81;5050872;28;19964;-49
2021/09/23 00:20:16;;;;;;;;;;;;;;;11.16;86.45;102206.16;5050916;28;19935;-51
2021/09/23 00:22:43;;;;;;;;;;;;;;;11.13;87.13;102203.69;5049194;28;20411;-49
2021/09/23 00:25:10;;;;;;;;;;;;;;;11.09;86.53;102201.28;5050577;28;19924;-50
2021/09/23 00:27:37;;;;;;;;;;;;;;;11.08;86.69;102187.22;5049055;28;19925;-43
2021/09/23 00:30:05;;;;;;;;;;;;;;;11.05;86.92;102183.91;5066290;28;19925;-42
2021/09/23 00:32:31;;;;;;;;;;;;;;;11.03;87.19;102180.47;5066045;28;19929;-44
2021/09/23 00:34:58;;;;;;;;;;;;;;;11.04;86.26;102183.03;5048843;28;19982;-42
2021/09/23 00:37:25;;;;;;;;;;;;;;;11.03;85.90;102181.34;5049872;28;20525;-43
2021/09/23 00:39:51;;;;;;;;;;;;;;;10.96;85.56;102178.13;5066548;28;19931;-43
2021/09/23 00:42:18;;;;;;;;;;;;;;;10.93;85.98;102185.31;5048155;28;19940;-43
2021/09/23 00:44:55;;;;;;;;;;;;;;;10.88;86.03;102187.28;5050678;28;19971;-44
2021/09/23 00:47:22;;;;;;;;;;;;;;;10.87;86.44;102191.72;5049257;28;20015;-44
2021/09/23 00:49:49;;;;;;;;;;;;;;;10.85;86.72;102183.00;5049674;28;20465;-44
2021/09/23 00:52:16;;;;;;;;;;;;;;;10.87;86.83;102181.19;5049522;28;19935;-44
2021/09/23 00:54:44;;;;;;;;;;;;;;;10.92;85.79;102178.31;5049307;28;19925;-43
2021/09/23 00:57:10;;;;;;;;;;;;;;;10.82;85.88;102167.38;5064102;28;19925;-46
2021/09/23 00:59:37;;;;;;;;;;;;;;;10.79;86.31;102171.00;5050084;28;20369;-45
2021/09/23 01:02:03;;;;;;;;;;;;;;;10.79;86.46;102160.47;5065532;28;19991;-47
2021/09/23 01:04:30;;;;;;;;;;;;;;;10.87;85.35;102159.28;5049875;28;20023;-45
2021/09/23 01:06:57;;;;;;;;;;;;;;;10.83;85.44;102158.56;5049291;28;20299;-45
2021/09/23 01:09:24;;;;;;;;;;;;;;;10.82;85.65;102156.84;5065453;28;20008;-41
2021/09/23 01:11:50;;;;;;;;;;;;;;;10.78;86.12;102140.34;5048398;28;20402;-43
2021/09/23 01:14:17;;;;;;;;;;;;;;;10.80;85.81;102145.56;5049704;28;19925;-43
2021/09/23 01:16:43;;;;;;;;;;;;;;;10.81;84.97;102131.44;5050335;28;19925;-41
2021/09/23 01:19:11;;;;;;;;;;;;;;;10.81;85.33;102128.81;5050285;28;19924;-42
2021/09/23 01:21:37;;;;;;;;;;;;;;;10.74;85.13;102127.38;5048033;28;19936;-50
2021/09/23 01:24:04;;;;;;;;;;;;;;;10.67;85.57;102123.34;5049722;28;20295;-53
2021/09/23 01:26:31;;;;;;;;;;;;;;;10.72;85.79;102118.72;5047752;28;20386;-51
2021/09/23 01:28:58;;;;;;;;;;;;;;;10.61;85.59;102119.22;5049749;28;19924;-49
2021/09/23 01:31:24;;;;;;;;;;;;;;;10.53;86.43;102114.28;5049847;28;19978;-49
2021/09/23 01:33:51;;;;;;;;;;;;;;;10.51;87.19;102113.47;5050023;28;20448;-49
2021/09/23 01:36:18;;;;;;;;;;;;;;;10.50;87.52;102114.44;5049020;28;19925;-52
2021/09/23 01:38:44;;;;;;;;;;;;;;;10.51;87.86;102116.13;5050369;28;20303;-50
2021/09/23 01:41:11;;;;;;;;;;;;;;;10.57;86.70;102110.59;5048038;28;20482;-48
2021/09/23 01:43:38;;;;;;;;;;;;;;;10.52;87.55;102112.56;5049533;28;19929;-50
2021/09/23 01:46:04;;;;;;;;;;;;;;;10.50;88.24;102109.16;5052846;28;19932;-43
2021/09/23 01:48:31;;;;;;;;;;;;;;;10.59;87.45;102113.16;5053684;28;19952;-45
2021/09/23 01:50:58;;;;;;;;;;;;;;;10.57;87.59;102112.38;5053901;28;19932;-49
2021/09/23 01:53:25;;;;;;;;;;;;;;;10.56;88.20;102108.03;5053109;28;19928;-48
2021/09/23 01:55:52;;;;;;;;;;;;;;;10.57;87.47;102115.00;5053276;28;19925;-52
2021/09/23 01:58:18;;;;;;;;;;;;;;;10.56;87.23;102102.78;5052598;28;19936;-45
2021/09/23 02:00:45;;;;;;;;;;;;;;;10.58;87.71;102096.53;5053737;28;19936;-42
2021/09/23 02:03:12;;;;;;;;;;;;;;;10.55;87.71;102103.69;5052016;28;20292;-43
2021/09/23 02:05:39;;;;;;;;;;;;;;;10.56;87.23;102101.00;5053707;28;20003;-41
2021/09/23 02:08:06;;;;;;;;;;;;;;;10.58;86.78;102096.53;5053222;28;19928;-41
2021/09/23 02:10:33;;;;;;;;;;;;;;;10.60;86.50;102092.03;5053714;28;19932;-50
2021/09/23 02:12:59;;;;;;;;;;;;;;;10.53;86.87;102093.25;5066947;28;19929;-49
2021/09/23 02:15:26;;;;;;;;;;;;;;;10.52;86.65;102082.78;5055160;28;19935;-51
2021/09/23 02:17:53;;;;;;;;;;;;;;;10.47;87.78;102072.47;5053460;28;19939;-49
2021/09/23 02:20:20;;;;;;;;;;;;;;;10.37;87.97;102063.28;5053263;28;19995;-49
2021/09/23 02:22:46;;;;;;;;;;;;;;;10.42;87.87;102064.78;5051116;28;19978;-48
2021/09/23 02:25:13;;;;;;;;;;;;;;;10.39;87.50;102061.44;5052971;28;19932;-48
2021/09/23 02:27:40;;;;;;;;;;;;;;;10.32;86.85;102058.19;5050231;28;20016;-48
2021/09/23 02:30:07;;;;;;;;;;;;;;;10.39;86.95;102057.06;5053070;28;19955;-51
2021/09/23 02:32:34;;;;;;;;;;;;;;;10.36;86.47;102049.31;5052039;28;20392;-43
2021/09/23 02:35:01;;;;;;;;;;;;;;;10.30;86.68;102044.28;5051597;28;19928;-47
2021/09/23 02:37:28;;;;;;;;;;;;;;;10.28;86.30;102036.47;5051983;28;19925;-42
2021/09/23 02:39:57;;;;;;;;;;;;;;;10.23;86.71;102029.72;5052909;28;19924;-45
2021/09/23 02:42:24;;;;;;;;;;;;;;;10.21;87.23;102028.91;5032956;28;19951;-44
2021/09/23 02:44:51;;;;;;;;;;;;;;;10.21;87.26;102018.38;5051386;28;19925;-50
2021/09/23 02:47:18;;;;;;;;;;;;;;;10.17;87.87;102016.81;5067839;28;19928;-51
2021/09/23 02:49:45;;;;;;;;;;;;;;;10.28;87.17;102001.41;5052931;28;20034;-52
2021/09/23 02:52:11;;;;;;;;;;;;;;;10.21;86.44;101995.59;5050964;28;20283;-51
2021/09/23 02:54:38;;;;;;;;;;;;;;;10.15;86.65;102001.97;5052622;28;19982;-52
2021/09/23 02:57:04;;;;;;;;;;;;;;;10.06;87.64;101989.25;5050152;28;20034;-49
2021/09/23 02:59:31;;;;;;;;;;;;;;;10.09;88.16;101993.50;5052329;28;20357;-50
2021/09/23 03:01:58;;;;;;;;;;;;;;;10.05;87.71;101989.31;5050999;28;19932;-49
2021/09/23 03:04:25;;;;;;;;;;;;;;;10.11;87.92;101994.28;5052460;28;19924;-51
2021/09/23 03:06:51;;;;;;;;;;;;;;;10.04;87.79;101992.88;5050445;28;20311;-50
2021/09/23 03:09:18;;;;;;;;;;;;;;;10.05;87.94;101990.16;5052276;28;20485;-50
2021/09/23 03:11:45;;;;;;;;;;;;;;;9.99;88.71;101990.44;5050427;28;20319;-50
2021/09/23 03:14:11;;;;;;;;;;;;;;;10.05;88.10;101986.66;5067181;28;19925;-52
2021/09/23 03:16:38;;;;;;;;;;;;;;;9.94;88.41;101980.13;5052279;28;19935;-42
2021/09/23 03:19:05;;;;;;;;;;;;;;;10.04;88.11;101990.25;5052134;28;19925;-41
2021/09/23 03:21:32;;;;;;;;;;;;;;;9.94;87.54;101990.66;5066922;28;19960;-42
2021/09/23 03:23:59;;;;;;;;;;;;;;;9.96;87.92;101988.78;5052388;28;19925;-46
2021/09/23 03:26:25;;;;;;;;;;;;;;;9.92;87.91;101981.97;5054595;28;20379;-43
2021/09/23 03:28:52;;;;;;;;;;;;;;;9.88;88.84;101977.75;5054667;28;19929;-45
2021/09/23 03:31:18;;;;;;;;;;;;;;;9.89;87.92;101982.09;5054567;28;19924;-41
2021/09/23 03:33:45;;;;;;;;;;;;;;;9.87;88.31;101970.81;5054008;28;19932;-42
2021/09/23 03:36:12;;;;;;;;;;;;;;;9.89;88.00;101976.00;5054386;28;19928;-41
2021/09/23 03:38:40;;;;;;;;;;;;;;;9.85;87.70;101967.41;5054246;28;20027;-45
2021/09/23 03:41:09;;;;;;;;;;;;;;;9.82;87.36;101971.00;5054593;28;19963;-43
2021/09/23 03:43:36;;;;;;;;;;;;;;;9.80;87.82;101967.63;5053182;28;19925;-41
2021/09/23 03:46:05;;;;;;;;;;;;;;;9.77;87.85;101972.97;5054700;28;20311;-43
2021/09/23 03:48:32;;;;;;;;;;;;;;;9.79;86.93;101967.69;5054204;28;19979;-43
2021/09/23 03:50:59;;;;;;;;;;;;;;;9.72;88.01;101968.84;5053902;28;19940;-42
2021/09/23 03:53:26;;;;;;;;;;;;;;;9.74;88.62;101973.13;5051122;28;20325;-43
2021/09/23 03:55:52;;;;;;;;;;;;;;;9.76;88.07;101975.69;5049738;28;19933;-42
2021/09/23 03:58:19;;;;;;;;;;;;;;;9.73;88.16;101970.56;5049556;28;19925;-44
2021/09/23 04:00:46;;;;;;;;;;;;;;;9.77;87.91;101972.97;5052831;28;19924;-42
2021/09/23 04:03:12;;;;;;;;;;;;;;;9.71;88.47;101970.63;5051337;28;19925;-43
2021/09/23 04:05:39;;;;;;;;;;;;;;;9.67;89.16;101976.06;5051337;28;19925;-43
2021/09/23 04:08:06;;;;;;;;;;;;;;;9.76;87.89;101966.03;5050287;28;19925;-41
2021/09/23 04:10:33;;;;;;;;;;;;;;;9.69;88.14;101969.00;5052103;28;19924;-42
2021/09/23 04:13:00;;;;;;;;;;;;;;;9.63;88.40;101968.34;5044435;28;19925;-43
2021/09/23 04:15:26;;;;;;;;;;;;;;;9.65;88.66;101970.88;5051707;28;19929;-41
2021/09/23 04:17:53;;;;;;;;;;;;;;;9.59;88.90;101974.63;5030667;28;19925;-42
2021/09/23 04:20:20;;;;;;;;;;;;;;;9.57;88.15;101963.38;5030854;28;19925;-43
2021/09/23 04:22:46;;;;;;;;;;;;;;;9.59;88.23;101966.75;5031518;28;19925;-44
2021/09/23 04:25:13;;;;;;;;;;;;;;;9.70;87.84;101968.94;5034011;28;19925;-43
2021/09/23 04:27:40;;;;;;;;;;;;;;;9.67;87.55;101957.69;5033557;28;19925;-40
2021/09/23 04:30:07;;;;;;;;;;;;;;;9.61;88.24;101969.31;5030667;28;19928;-42
2021/09/23 04:32:33;;;;;;;;;;;;;;;9.58;88.63;101967.66;5045870;28;19929;-42
2021/09/23 04:35:00;;;;;;;;;;;;;;;9.54;89.25;101965.25;5062850;28;19929;-52
2021/09/23 04:37:27;;;;;;;;;;;;;;;9.52;88.54;101960.06;5029924;28;19929;-51
2021/09/23 04:39:53;;;;;;;;;;;;;;;9.48;88.28;101964.59;5032556;28;19925;-49
2021/09/23 04:42:20;;;;;;;;;;;;;;;9.53;88.62;101947.78;5033222;28;19929;-49
2021/09/23 04:44:47;;;;;;;;;;;;;;;9.48;88.16;101946.22;5031016;28;19925;-51
2021/09/23 04:47:14;;;;;;;;;;;;;;;9.46;88.40;101947.19;5030257;28;19932;-47
2021/09/23 04:49:44;;;;;;;;;;;;;;;9.45;88.03;101945.50;5033162;28;19932;-49
2021/09/23 04:52:10;;;;;;;;;;;;;;;9.48;87.92;101946.22;5064122;28;19929;-48
2021/09/23 04:54:37;;;;;;;;;;;;;;;9.46;88.37;101934.06;5065035;28;19956;-51
2021/09/23 04:57:04;;;;;;;;;;;;;;;9.38;89.22;101929.16;5031988;28;19925;-51
2021/09/23 04:59:35;;;;;;;;;;;;;;;9.40;89.07;101923.84;5030271;28;19932;-50
2021/09/23 05:02:02;;;;;;;;;;;;;;;9.41;89.06;101921.16;5029201;28;19933;-50
2021/09/23 05:04:29;;;;;;;;;;;;;;;9.46;88.89;101915.69;5030174;28;19948;-43
2021/09/23 05:06:55;;;;;;;;;;;;;;;9.43;88.35;101907.94;5029914;28;19929;-44
2021/09/23 05:09:22;;;;;;;;;;;;;;;9.40;88.69;101905.47;5031834;28;19971;-43
2021/09/23 05:11:48;;;;;;;;;;;;;;;9.40;88.10;101903.69;5033012;28;19928;-43
2021/09/23 05:14:17;;;;;;;;;;;;;;;9.36;88.95;101896.00;5032926;28;19964;-42
2021/09/23 05:16:44;;;;;;;;;;;;;;;9.34;89.33;101896.09;5032823;28;20020;-44
2021/09/23 05:19:12;;;;;;;;;;;;;;;9.30;89.74;101892.72;5064337;28;19975;-39
2021/09/23 05:21:40;;;;;;;;;;;;;;;9.32;90.20;101897.06;5032792;28;19971;-46
2021/09/23 05:24:09;;;;;;;;;;;;;;;9.35;90.31;101886.41;5062787;28;19925;-46
2021/09/23 05:26:35;;;;;;;;;;;;;;;9.34;90.74;101884.72;5028444;28;19999;-52
2021/09/23 05:29:02;;;;;;;;;;;;;;;9.33;92.02;101877.78;5032311;28;19972;-52
2021/09/23 05:31:29;;;;;;;;;;;;;;;9.37;91.13;101879.34;5030629;28;19925;-49
2021/09/23 05:33:56;;;;;;;;;;;;;;;9.36;91.65;101882.88;5032556;28;19947;-52
2021/09/23 05:36:23;;;;;;;;;;;;;;;9.32;92.07;101882.16;5031402;28;19975;-50
2021/09/23 05:38:49;;;;;;;;;;;;;;;9.35;92.21;101886.41;5031218;28;20324;-48
2021/09/23 05:41:16;;;;;;;;;;;;;;;9.36;92.56;101880.25;5032414;28;19932;-40
2021/09/23 05:43:43;;;;;;;;;;;;;;;9.36;93.26;101872.38;5032432;28;20369;-42
2021/09/23 05:46:09;;;;;;;;;;;;;;;9.45;92.60;101870.19;5032029;28;19933;-43
2021/09/23 05:48:36;;;;;;;;;;;;;;;9.41;93.92;101867.78;5029944;28;20607;-42
2021/09/23 05:51:03;;;;;;;;;;;;;;;9.42;94.68;101866.84;5029667;28;19925;-41
2021/09/23 05:53:29;;;;;;;;;;;;;;;9.41;95.13;101865.16;5031318;28;19925;-42
2021/09/23 05:55:56;;;;;;;;;;;;;;;9.44;94.92;101865.03;5032418;28;20019;-42
2021/09/23 05:58:23;;;;;;;;;;;;;;;9.45;95.45;101854.44;5031911;28;19975;-45
2021/09/23 06:00:49;;;;;;;;;;;;;;;9.47;95.65;101868.38;5031661;28;19925;-42
2021/09/23 06:03:16;;;;;;;;;;;;;;;9.55;95.54;101851.41;5030842;28;19925;-45
2021/09/23 06:05:43;;;;;;;;;;;;;;;9.58;96.38;101849.47;5030111;28;19925;-43
2021/09/23 06:08:10;;;;;;;;;;;;;;;9.70;96.83;101847.25;5061036;28;19926;-41
2021/09/23 06:10:37;;;;;;;;;;;;;;;9.70;96.95;101842.00;5064036;28;19932;-43
2021/09/23 06:13:05;;;;;;;;;;;;;;;9.79;97.67;101841.59;5032548;28;19926;-43
2021/09/23 06:15:32;;;;;;;;;;;;;;;9.85;98.09;101838.66;5032164;28;19933;-41
2021/09/23 06:17:59;;;;;;;;;;;;;;;10.02;98.63;101829.13;5030974;28;19925;-44
2021/09/23 06:20:26;;;;;;;;;;;;;;;10.09;99.09;101830.53;5032223;28;20391;-42
2021/09/23 06:22:54;;;;;;;;;;;;;;;10.17;99.02;101835.44;5063853;28;19987;-43
2021/09/23 06:25:22;;;;;;;;;;;;;;;10.19;98.31;101834.44;5032055;28;20085;-42
2021/09/23 06:27:48;;;;;;;;;;;;;;;10.23;99.03;101838.63;5032069;28;20020;-43
2021/09/23 06:30:17;;;;;;;;;;;;;;;10.27;99.07;101834.09;5030932;28;20285;-42
2021/09/23 06:32:44;;;;;;;;;;;;;;;10.34;98.88;101842.53;5063375;28;20292;-42
2021/09/23 06:35:11;;;;;;;;;;;;;;;10.41;99.19;101836.06;5065323;28;19944;-44
2021/09/23 06:37:44;;;;;;;;;;;;;;;10.50;99.66;101840.88;5047505;28;19936;-44
2021/09/23 06:40:11;;;;;;;;;;;;;;;10.56;99.36;101834.47;5050868;28;19929;-41
2021/09/23 06:42:38;;;;;;;;;;;;;;;10.75;99.99;101831.78;5034377;28;19935;-44
2021/09/23 06:45:05;;;;;;;;;;;;;;;10.82;100.00;101830.53;5032964;28;19925;-46
2021/09/23 06:47:32;;;;;;;;;;;;;;;10.96;99.87;101817.53;5032559;28;19953;-43
2021/09/23 06:49:58;;;;;;;;;;;;;;;11.06;100.00;101823.16;5035141;28;19925;-44
2021/09/23 06:52:26;;;;;;;;;;;;;;;11.14;100.00;101823.63;5067297;28;19929;-43
2021/09/23 06:54:53;;;;;;;;;;;;;;;11.33;100.00;101838.47;5035472;28;19925;-42
2021/09/23 06:57:20;;;;;;;;;;;;;;;11.43;100.00;101826.50;5035428;28;19972;-42
2021/09/23 06:59:46;;;;;;;;;;;;;;;11.54;100.00;101833.84;5035381;28;20335;-42
2021/09/23 07:02:13;;;;;;;;;;;;;;;11.62;99.97;101834.28;5035211;28;19925;-41
2021/09/23 07:04:41;;;;;;;;;;;;;;;11.71;99.72;101830.31;5032968;28;19990;-43
2021/09/23 07:07:07;;;;;;;;;;;;;;;11.80;100.00;101823.66;5032431;28;19932;-42
2021/09/23 07:09:34;;;;;;;;;;;;;;;11.89;99.18;101835.47;5033948;28;19947;-42
2021/09/23 07:12:01;;;;;;;;;;;;;;;12.05;99.06;101827.63;5062937;28;20402;-44
2021/09/23 07:14:28;;;;;;;;;;;;;;;12.15;98.22;101832.28;5031876;28;20384;-43
2021/09/23 07:16:54;;;;;;;;;;;;;;;12.18;98.16;101840.03;5032196;28;19932;-42
2021/09/23 07:19:21;;;;;;;;;;;;;;;12.26;97.70;101838.75;5064103;28;20503;-43
2021/09/23 07:21:53;;;;;;;;;;;;;;;12.33;97.57;101825.13;5031825;28;19925;-42
2021/09/23 07:24:20;;;;;;;;;;;;;;;12.45;97.54;101820.09;5031864;28;19932;-41
2021/09/23 07:26:47;;;;;;;;;;;;;;;12.55;97.27;101815.97;5034732;28;19965;-42
2021/09/23 07:29:15;;;;;;;;;;;;;;;12.77;96.84;101825.28;5034591;28;19931;-41
2021/09/23 07:31:42;;;;;;;;;;;;;;;12.98;96.78;101826.66;5033022;28;19929;-43
2021/09/23 07:34:09;;;;;;;;;;;;;;;13.16;95.54;101813.28;5031993;28;19932;-44
2021/09/23 07:36:36;;;;;;;;;;;;;;;13.37;95.13;101816.41;5032460;28;20331;-41
2021/09/23 07:39:06;;;;;;;;;;;;;;;13.58;95.22;101819.53;5049812;28;20380;-42
2021/09/23 07:41:34;;;;;;;;;;;;;;;13.72;94.05;101807.25;5034332;28;19925;-42
2021/09/23 07:44:00;;;;;;;;;;;;;;;13.97;93.47;101794.16;5032505;28;19929;-43
2021/09/23 07:46:27;;;;;;;;;;;;;;;14.17;92.88;101789.38;5030498;28;20440;-42
2021/09/23 07:48:54;;;;;;;;;;;;;;;14.30;91.68;101779.69;5033808;28;19925;-45
2021/09/23 07:51:20;;;;;;;;;;;;;;;14.44;91.64;101778.75;5031593;28;20336;-44
2021/09/23 07:53:47;;;;;;;;;;;;;;;14.59;91.00;101771.59;5031732;28;19925;-42
2021/09/23 07:56:14;;;;;;;;;;;;;;;14.87;89.94;101767.09;5065328;28;19925;-45
2021/09/23 07:58:41;;;;;;;;;;;;;;;14.98;89.43;101747.81;5066197;28;19975;-42
2021/09/23 08:01:11;;;;;;;;;;;;;;;15.18;88.69;101735.81;5066018;28;19942;-43
2021/09/23 08:03:38;;;;;;;;;;;;;;;15.27;88.21;101734.31;5034417;28;19935;-48
2021/09/23 08:06:05;;;;;;;;;;;;;;;15.49;87.15;101721.22;5049596;28;19925;-44
2021/09/23 08:08:32;;;;;;;;;;;;;;;15.62;86.93;101715.88;5032577;28;19929;-42
2021/09/23 08:10:58;;;;;;;;;;;;;;;15.78;86.58;101723.56;5028804;28;20020;-44
2021/09/23 08:13:25;;;;;;;;;;;;;;;16.01;85.61;101713.94;5032813;28;19925;-44
2021/09/23 08:15:52;;;;;;;;;;;;;;;16.10;85.01;101719.50;5033904;28;19929;-44
2021/09/23 08:18:19;;;;;;;;;;;;;;;16.28;83.65;101725.22;5032980;28;20396;-41
2021/09/23 08:20:46;;;;;;;;;;;;;;;16.27;84.09;101719.09;5031259;28;19925;-42
2021/09/23 08:23:13;;;;;;;;;;;;;;;16.43;83.19;101707.28;5032515;28;19925;-49
2021/09/23 08:25:40;;;;;;;;;;;;;;;16.63;83.52;101711.91;5033780;28;19931;-49
2021/09/23 08:28:07;;;;;;;;;;;;;;;16.81;82.51;101720.28;5032530;28;19932;-51
2021/09/23 08:30:34;;;;;;;;;;;;;;;17.07;82.18;101714.78;5033914;28;20392;-47
2021/09/23 08:33:01;;;;;;;;;;;;;;;17.20;80.73;101723.44;5032506;28;20308;-49
2021/09/23 08:35:28;;;;;;;;;;;;;;;17.17;80.38;101738.81;5033660;28;19925;-49
2021/09/23 08:37:54;;;;;;;;;;;;;;;17.09;80.56;101743.88;5033646;28;20376;-52
2021/09/23 08:40:21;;;;;;;;;;;;;;;17.18;80.79;101733.38;5063142;28;19995;-52
2021/09/23 08:42:48;;;;;;;;;;;;;;;17.18;80.07;101746.66;5028924;28;19932;-50
2021/09/23 08:45:15;;;;;;;;;;;;;;;17.16;80.00;101750.41;5033504;28;20385;-49
2021/09/23 08:47:42;;;;;;;;;;;;;;;17.05;78.78;101759.22;5032290;28;20016;-49
2021/09/23 08:50:11;;;;;;;;;;;;;;;17.06;79.21;101761.75;5029377;28;19932;-49
2021/09/23 08:52:39;;;;;;;;;;;;;;;17.18;79.48;101764.44;5032509;28;19975;-49
2021/09/23 08:55:05;;;;;;;;;;;;;;;17.19;79.37;101753.69;5031468;28;19925;-52
2021/09/23 08:57:32;;;;;;;;;;;;;;;17.20;78.76;101744.72;5032872;28;20369;-48
2021/09/23 09:00:06;;;;;;;;;;;;;;;17.23;78.18;101749.81;5045959;28;19929;-48
2021/09/23 09:02:33;;;;;;;;;;;;;;;17.47;78.13;101745.31;5030015;28;19940;-51
2021/09/23 09:05:00;;;;;;;;;;;;;;;17.53;77.77;101735.03;5031942;28;19925;-48
2021/09/23 09:07:28;;;;;;;;;;;;;;;17.70;76.73;101752.25;5033149;28;19929;-47
2021/09/23 09:10:06;;;;;;;;;;;;;;;17.73;76.89;101752.00;5032889;28;19925;-47
2021/09/23 09:12:33;;;;;;;;;;;;;;;17.77;76.64;101744.63;5032232;28;19933;-42
2021/09/23 09:15:00;;;;;;;;;;;;;;;17.84;76.27;101743.16;5030324;28;20396;-42
2021/09/23 09:17:27;;;;;;;;;;;;;;;17.87;76.71;101742.06;5029933;28;20451;-42
2021/09/23 09:20:02;;;;;;;;;;;;;;;17.99;76.14;101741.06;5062192;28;19933;-44
2021/09/23 09:22:30;;;;;;;;;;;;;;;17.96;76.06;101751.16;5029467;28;19929;-43
2021/09/23 09:24:58;;;;;;;;;;;;;;;17.97;75.85;101750.16;5064662;28;20039;-43
2021/09/23 09:27:29;;;;;;;;;;;;;;;17.90;76.56;101753.31;5032837;28;19924;-51
2021/09/23 09:30:00;;;;;;;;;;;;;;;17.90;76.46;101744.47;5032728;28;19932;-44
2021/09/23 09:32:34;;;;;;;;;;;;;;;17.74;76.25;101740.41;5032526;28;19925;-44
2021/09/23 09:35:00;;;;;;;;;;;;;;;17.76;76.53;101739.44;5033049;28;19925;-42
2021/09/23 09:37:29;;;;;;;;;;;;;;;17.87;76.41;101734.06;5032294;28;19925;-43
2021/09/23 09:39:56;;;;;;;;;;;;;;;17.90;76.07;101731.16;5030816;28;19929;-43
2021/09/23 09:42:23;;;;;;;;;;;;;;;18.02;76.03;101739.97;5032267;28;19952;-46
2021/09/23 09:44:54;;;;;;;;;;;;;;;18.08;75.29;101719.03;5064288;28;20411;-45
2021/09/23 09:47:33;;;;;;;;;;;;;;;18.26;75.76;101712.31;5064173;28;20383;-44
2021/09/23 09:50:09;;;;;;;;;;;;;;;18.40;74.16;101718.13;5063782;28;20020;-45
2021/09/23 09:52:46;;;;;;;;;;;;;;;18.79;72.41;101706.88;5032623;28;19979;-48
2021/09/23 09:55:13;;;;;;;;;;;;;;;19.07;71.13;101700.00;5032584;28;19929;-49
2021/09/23 09:57:46;;;;;;;;;;;;;;;19.33;70.90;101688.81;5064199;28;19929;-48
2021/09/23 10:00:14;;;;;;;;;;;;;;;19.54;69.18;101685.25;5032256;28;19925;-51
2021/09/23 10:02:43;;;;;;;;;;;;;;;19.81;68.53;101695.28;5032360;28;19925;-49
2021/09/23 10:05:11;;;;;;;;;;;;;;;20.06;67.85;101701.84;5032442;28;19941;-49
2021/09/23 10:07:38;;;;;;;;;;;;;;;19.99;67.60;101706.06;5066260;28;20411;-52
2021/09/23 10:10:05;;;;;;;;;;;;;;;20.10;67.53;101703.25;5068325;28;19925;-44
2021/09/23 10:12:32;;;;;;;;;;;;;;;20.17;66.82;101703.53;5063498;28;19929;-44
2021/09/23 10:14:59;;;;;;;;;;;;;;;20.57;65.99;101704.28;5065380;28;20380;-45
2021/09/23 10:17:29;;;;;;;;;;;;;;;20.59;65.26;101705.00;5034839;28;20384;-44
2021/09/23 10:19:57;;;;;;;;;;;;;;;20.66;64.24;101703.44;5066706;28;19925;-44
2021/09/23 10:22:25;;;;;;;;;;;;;;;20.79;64.12;101688.94;5050898;28;20318;-45
2021/09/23 10:24:52;;;;;;;;;;;;;;;20.82;64.29;101694.84;5035791;28;19926;-44
2021/09/23 10:30:04;;;;;;;;;;;;;;;20.39;64.58;101707.72;5061915;28;19956;-45
2021/09/23 10:32:31;;;;;;;;;;;;;;;20.60;65.22;101704.84;5065000;28;19929;-41
2021/09/23 10:34:57;;;;;;;;;;;;;;;20.46;65.34;101702.63;5032082;28;19931;-47
2021/09/23 10:37:24;;;;;;;;;;;;;;;20.50;64.86;101705.88;5064024;28;19925;-49
2021/09/23 10:39:51;;;;;;;;;;;;;;;20.39;64.95;101697.03;5033476;28;20438;-51
2021/09/23 10:42:21;;;;;;;;;;;;;;;20.36;66.49;101696.47;5062742;28;19925;-49
2021/09/23 10:44:49;;;;;;;;;;;;;;;20.25;66.43;101687.63;5065541;28;19968;-48
2021/09/23 10:47:22;;;;;;;;;;;;;;;20.10;66.76;101684.56;5035622;28;19932;-48
2021/09/23 10:49:49;;;;;;;;;;;;;;;19.96;66.12;101687.69;5067546;28;19979;-48
2021/09/23 10:52:15;;;;;;;;;;;;;;;20.09;66.26;101687.38;5050907;28;19947;-47
2021/09/23 10:54:42;;;;;;;;;;;;;;;20.04;65.67;101690.50;5035446;28;19925;-49
2021/09/23 10:57:09;;;;;;;;;;;;;;;19.58;66.57;101697.31;5067257;28;19932;-49
2021/09/23 10:59:38;;;;;;;;;;;;;;;19.70;66.24;101696.22;5035669;28;19931;-47
2021/09/23 11:02:23;;;;;;;;;;;;;;;19.61;67.28;101701.53;5067214;28;19925;-48
2021/09/23 11:04:54;;;;;;;;;;;;;;;19.66;67.75;101697.47;5035480;28;19929;-47
2021/09/23 11:07:21;;;;;;;;;;;;;;;19.87;67.96;101692.03;5067272;28;19925;-48
2021/09/23 11:10:04;;;;;;;;;;;;;;;19.98;67.72;101691.03;5067279;28;19925;-51
2021/09/23 11:12:31;;;;;;;;;;;;;;;19.88;67.20;101690.22;5035081;28;20281;-47
2021/09/23 11:14:58;;;;;;;;;;;;;;;19.55;66.51;101692.25;5033642;28;19976;-48
2021/09/23 11:17:25;;;;;;;;;;;;;;;19.60;66.62;101690.00;5030227;28;19929;-46
2021/09/23 11:19:53;;;;;;;;;;;;;;;19.61;66.62;101681.03;5032920;28;19931;-47
2021/09/23 11:22:28;;;;;;;;;;;;;;;19.63;66.74;101676.38;5063435;28;20002;-47
2021/09/23 11:24:55;;;;;;;;;;;;;;;19.53;68.14;101675.53;5064333;28;20346;-52
2021/09/23 11:27:22;;;;;;;;;;;;;;;19.50;67.99;101674.00;5042373;28;20129;-48
2021/09/23 11:29:49;;;;;;;;;;;;;;;19.59;68.50;101666.97;5063211;28;20019;-51
2021/09/23 11:32:15;;;;;;;;;;;;;;;19.54;67.87;101664.72;5032077;28;19925;-51
2021/09/23 11:34:42;;;;;;;;;;;;;;;19.60;68.11;101658.00;5034740;28;19933;-48
2021/09/23 11:37:09;;;;;;;;;;;;;;;19.51;68.19;101658.81;5034633;28;20016;-51
2021/09/23 11:39:36;;;;;;;;;;;;;;;19.49;67.86;101642.97;5063967;28;19960;-52
2021/09/23 11:42:10;;;;;;;;;;;;;;;19.50;67.13;101650.00;5029017;28;19933;-51
2021/09/23 11:44:37;;;;;;;;;;;;;;;19.54;66.48;101653.22;5031151;28;19925;-51
2021/09/23 11:47:21;;;;;;;;;;;;;;;19.59;66.71;101654.50;5030732;28;20032;-47
2021/09/23 11:49:49;;;;;;;;;;;;;;;19.55;67.41;101646.88;5029821;28;20108;-51
2021/09/23 11:52:16;;;;;;;;;;;;;;;19.60;66.11;101650.00;5033448;28;19925;-52
2021/09/23 11:54:44;;;;;;;;;;;;;;;20.12;64.92;101646.19;5034036;28;20040;-43
2021/09/23 11:57:25;;;;;;;;;;;;;;;20.58;62.96;101661.38;5030981;28;19936;-44
2021/09/23 11:59:53;;;;;;;;;;;;;;;20.96;61.15;101656.06;5029404;28;19929;-44
2021/09/23 12:02:19;;;;;;;;;;;;;;;21.30;59.93;101646.56;5029934;28;20292;-48
2021/09/23 12:04:53;;;;;;;;;;;;;;;21.28;58.45;101644.03;5029392;28;19932;-45
2021/09/23 12:07:20;;;;;;;;;;;;;;;21.25;58.87;101630.97;5030482;28;20388;-49
2021/09/23 12:10:06;;;;;;;;;;;;;;;21.55;58.60;101642.34;5031571;28;19931;-49
2021/09/23 12:12:33;;;;;;;;;;;;;;;21.80;59.02;101621.16;5030917;28;19932;-46
2021/09/23 12:15:00;;;;;;;;;;;;;;;22.17;58.04;101620.06;5030721;28;19929;-45
2021/09/23 12:17:26;;;;;;;;;;;;;;;22.23;57.17;101606.06;5030260;28;19925;-45
2021/09/23 12:19:54;;;;;;;;;;;;;;;22.49;56.42;101607.91;5045624;28;19959;-49
2021/09/23 12:22:30;;;;;;;;;;;;;;;22.37;56.57;101601.97;5062046;28;19982;-47
2021/09/23 12:24:57;;;;;;;;;;;;;;;22.61;56.14;101598.56;5064151;28;19925;-47
2021/09/23 12:27:25;;;;;;;;;;;;;;;22.55;55.76;101593.84;5029019;28;19933;-45
2021/09/23 12:29:56;;;;;;;;;;;;;;;22.33;55.83;101588.00;5029495;28;19925;-45
2021/09/23 12:32:38;;;;;;;;;;;;;;;22.25;57.13;101585.28;5062033;28;19960;-47
2021/09/23 12:35:22;;;;;;;;;;;;;;;22.19;57.10;101600.16;5030191;28;19933;-46
2021/09/23 12:37:49;;;;;;;;;;;;;;;22.16;57.12;101599.66;5029549;28;19929;-45
2021/09/23 12:40:19;;;;;;;;;;;;;;;22.20;57.65;101601.84;5029472;28;19929;-49
2021/09/23 12:42:45;;;;;;;;;;;;;;;22.16;57.24;101594.31;5063236;28;19983;-53
2021/09/23 12:45:13;;;;;;;;;;;;;;;22.24;56.21;101597.03;5029644;28;19929;-51